Time;durP1;ratioP1;P1;durP2;ratioP2;P2;SDS_P1;SDS_P2;PMS_P1;PMS_P2;Temp;Humidity;BMP_temperature;BMP_pressure;BME280_temperature;BME280_humidity;BME280_pressure;Samples;Min_cycle;Max_cycle;Signal;HPM_P1;HPM_P2
2023/10/19 00:00:55;;;;;;;4.40;1.10;;;17.90;48.40;;;;;;6155149;23;20135;-86
2023/10/19 00:03:26;;;;;;;2.22;1.00;;;17.80;48.40;;;;;;6082012;23;20205;-84
2023/10/19 00:05:57;;;;;;;1.65;1.00;;;17.90;48.40;;;;;;6056582;23;20531;-85
2023/10/19 00:08:23;;;;;;;3.25;1.20;;;17.90;48.40;;;;;;6080605;23;20237;-85
2023/10/19 00:11:02;;;;;;;1.27;1.08;;;17.80;48.40;;;;;;6130206;23;20202;-86
2023/10/19 00:13:29;;;;;;;2.13;0.93;;;17.90;48.50;;;;;;6101630;23;20148;-85
2023/10/19 00:15:57;;;;;;;1.65;1.02;;;17.80;48.40;;;;;;6129764;23;20582;-84
2023/10/19 00:18:23;;;;;;;3.60;1.20;;;17.90;48.60;;;;;;6100813;23;20226;-84
2023/10/19 00:20:52;;;;;;;2.38;1.08;;;17.80;48.50;;;;;;6128966;23;20207;-85
2023/10/19 00:23:28;;;;;;;2.83;1.05;;;17.80;48.50;;;;;;6130373;23;20172;-85
2023/10/19 00:25:55;;;;;;;2.42;1.00;;;17.80;48.50;;;;;;6131898;23;20135;-84
2023/10/19 00:28:22;;;;;;;1.35;0.90;;;17.80;48.60;;;;;;6129729;23;20174;-84
2023/10/19 00:30:51;;;;;;;2.85;1.10;;;17.80;48.60;;;;;;6129906;23;20151;-85
2023/10/19 00:33:20;;;;;;;2.47;1.05;;;17.80;48.60;;;;;;6130790;23;20159;-86
2023/10/19 00:35:58;;;;;;;3.03;1.08;;;17.80;48.60;;;;;;6130269;23;20206;-83
2023/10/19 00:38:39;;;;;;;2.30;1.00;;;17.80;48.60;;;;;;6131977;23;20136;-84
2023/10/19 00:41:11;;;;;;;3.30;1.08;;;17.80;48.60;;;;;;6062846;23;20163;-85
2023/10/19 00:43:42;;;;;;;1.90;0.95;;;17.80;48.60;;;;;;6129728;23;20155;-85
2023/10/19 00:46:20;;;;;;;1.88;1.17;;;17.80;48.70;;;;;;6130295;23;20529;-84
2023/10/19 00:48:49;;;;;;;4.22;1.40;;;17.80;48.70;;;;;;6083636;23;20672;-85
2023/10/19 00:51:41;;;;;;;3.08;1.00;;;17.80;48.70;;;;;;6105244;23;20167;-86
2023/10/19 00:54:10;;;;;;;1.92;1.20;;;17.80;48.70;;;;;;6133163;23;20621;-85
2023/10/19 00:56:38;;;;;;;1.63;1.10;;;17.80;48.80;;;;;;6130331;23;20159;-84
2023/10/19 00:59:20;;;;;;;1.90;1.15;;;17.80;48.70;;;;;;6154258;23;20136;-84
2023/10/19 01:01:48;;;;;;;1.63;1.00;;;17.80;48.80;;;;;;6109038;23;20547;-85
2023/10/19 01:04:15;;;;;;;1.35;0.98;;;17.80;48.70;;;;;;6130104;23;20138;-84
2023/10/19 01:06:44;;;;;;;1.42;0.98;;;17.80;48.70;;;;;;6105200;23;20174;-84
2023/10/19 01:09:14;;;;;;;1.50;1.20;;;17.80;48.70;;;;;;6056402;23;20269;-87
2023/10/19 01:11:45;;;;;;;1.85;1.10;;;17.70;48.70;;;;;;6129811;23;20203;-85
2023/10/19 01:14:27;;;;;;;2.10;0.90;;;17.80;48.80;;;;;;6155758;23;20503;-85
2023/10/19 01:16:56;;;;;;;3.95;1.02;;;17.80;48.80;;;;;;6106200;23;20200;-87
2023/10/19 01:19:27;;;;;;;1.42;1.02;;;17.80;48.90;;;;;;6129175;23;20159;-86
2023/10/19 01:22:04;;;;;;;1.40;0.90;;;17.80;48.90;;;;;;6154427;23;20132;-85
2023/10/19 01:24:40;;;;;;;0.82;0.75;;;17.80;48.90;;;;;;6106546;23;20192;-84
2023/10/19 01:27:11;;;;;;;1.77;1.05;;;17.80;48.90;;;;;;6132754;23;20144;-85
2023/10/19 01:29:39;;;;;;;1.48;1.08;;;17.70;48.90;;;;;;6104556;23;20243;-84
2023/10/19 01:32:14;;;;;;;1.58;1.00;;;17.80;48.90;;;;;;6130147;23;20556;-84
2023/10/19 01:34:41;;;;;;;2.42;1.10;;;17.80;48.90;;;;;;6129737;23;20147;-83
2023/10/19 01:37:12;;;;;;;1.70;0.95;;;17.80;48.90;;;;;;6129397;23;20147;-86
2023/10/19 01:39:39;;;;;;;1.50;1.10;;;17.80;49.00;;;;;;6081560;23;20155;-84
2023/10/19 01:42:08;;;;;;;1.45;0.93;;;17.70;48.90;;;;;;6101308;23;20148;-84
2023/10/19 01:44:35;;;;;;;1.60;0.95;;;17.80;49.00;;;;;;6126216;23;20179;-86
2023/10/19 01:47:02;;;;;;;1.90;0.90;;;17.80;48.90;;;;;;6107649;23;20598;-84
2023/10/19 01:49:28;;;;;;;1.00;0.82;;;17.70;49.00;;;;;;6131434;23;20217;-85
2023/10/19 01:51:54;;;;;;;2.17;1.02;;;17.70;49.00;;;;;;6131790;23;20132;-85
2023/10/19 01:54:23;;;;;;;1.40;0.82;;;17.70;49.00;;;;;;6101809;23;20531;-85
2023/10/19 01:56:54;;;;;;;1.92;0.90;;;17.70;49.00;;;;;;6131023;23;20167;-85
2023/10/19 01:59:22;;;;;;;2.42;1.20;;;17.70;49.10;;;;;;6102003;23;20144;-85
2023/10/19 02:01:49;;;;;;;1.85;1.25;;;17.70;49.00;;;;;;6129897;23;20156;-84
2023/10/19 02:04:15;;;;;;;1.05;0.90;;;17.80;49.00;;;;;;6155647;23;20466;-86
2023/10/19 02:06:46;;;;;;;1.13;0.85;;;17.70;49.00;;;;;;6131150;23;20140;-86
2023/10/19 02:09:21;;;;;;;1.98;0.82;;;17.80;49.00;;;;;;6101833;23;20175;-86
2023/10/19 02:11:50;;;;;;;1.20;0.98;;;17.70;49.00;;;;;;6108456;23;20479;-86
2023/10/19 02:14:17;;;;;;;1.77;1.00;;;17.80;49.10;;;;;;6081636;23;20155;-84
2023/10/19 02:16:47;;;;;;;1.55;1.05;;;17.70;49.00;;;;;;6131696;23;20135;-86
2023/10/19 02:19:13;;;;;;;2.97;1.25;;;17.70;49.00;;;;;;6081455;23;20217;-86
2023/10/19 02:21:47;;;;;;;1.55;1.00;;;17.70;49.10;;;;;;6131233;23;20143;-84
2023/10/19 02:24:14;;;;;;;1.63;1.13;;;17.70;49.10;;;;;;6059927;23;20241;-86
2023/10/19 02:26:41;;;;;;;1.80;1.02;;;17.70;49.10;;;;;;6130923;23;20152;-85
2023/10/19 02:29:07;;;;;;;2.13;0.80;;;17.70;49.10;;;;;;6130327;23;20179;-85
2023/10/19 02:31:37;;;;;;;1.40;0.90;;;17.70;49.10;;;;;;6155294;23;20215;-86
2023/10/19 02:34:04;;;;;;;1.40;1.08;;;17.70;49.10;;;;;;6131248;23;20206;-85
2023/10/19 02:36:36;;;;;;;3.00;0.88;;;17.70;49.10;;;;;;6131173;23;20138;-85
2023/10/19 02:39:07;;;;;;;1.55;1.08;;;17.70;49.10;;;;;;6083018;23;20190;-85
2023/10/19 02:41:36;;;;;;;2.40;1.23;;;17.70;49.10;;;;;;6130785;23;20179;-84
2023/10/19 02:44:19;;;;;;;3.35;1.02;;;17.70;49.10;;;;;;6155383;23;20163;-85
2023/10/19 02:46:50;;;;;;;1.70;0.80;;;17.70;49.20;;;;;;6156229;23;20207;-85
2023/10/19 02:49:21;;;;;;;1.40;0.90;;;17.70;49.20;;;;;;6106424;23;20199;-86
2023/10/19 02:51:47;;;;;;;0.93;0.80;;;17.70;49.30;;;;;;6131061;23;20171;-84
2023/10/19 02:54:20;;;;;;;1.50;0.98;;;17.70;49.20;;;;;;6130550;23;20143;-85
2023/10/19 02:56:49;;;;;;;1.48;0.90;;;17.70;49.20;;;;;;6105252;23;20136;-84
2023/10/19 02:59:15;;;;;;;2.00;1.20;;;17.70;49.30;;;;;;6107661;23;20186;-84
2023/10/19 03:01:44;;;;;;;1.48;0.88;;;17.60;49.20;;;;;;6131425;23;20167;-86
2023/10/19 03:04:12;;;;;;;1.13;0.73;;;17.70;49.20;;;;;;6126518;23;20137;-85
2023/10/19 03:06:38;;;;;;;1.00;0.80;;;17.70;49.20;;;;;;6103229;23;20148;-86
2023/10/19 03:09:12;;;;;;;1.40;0.90;;;17.60;49.20;;;;;;6157120;23;20167;-85
2023/10/19 03:11:40;;;;;;;1.90;1.05;;;17.60;49.20;;;;;;6131659;23;20143;-85
2023/10/19 03:14:08;;;;;;;1.45;1.00;;;17.70;49.40;;;;;;6155813;23;20127;-86
2023/10/19 03:16:36;;;;;;;1.42;0.90;;;17.70;49.40;;;;;;6131436;23;20162;-86
2023/10/19 03:19:03;;;;;;;1.30;0.90;;;17.70;49.30;;;;;;6155600;23;20162;-85
2023/10/19 03:21:34;;;;;;;1.48;0.80;;;17.60;49.30;;;;;;6131402;23;20132;-84
2023/10/19 03:24:05;;;;;;;1.95;0.90;;;17.70;49.30;;;;;;6131272;23;20155;-84
2023/10/19 03:26:36;;;;;;;1.58;0.90;;;17.70;49.30;;;;;;6130819;23;20580;-87
2023/10/19 03:29:07;;;;;;;1.17;1.08;;;17.70;49.30;;;;;;6130527;23;20258;-85
2023/10/19 03:31:43;;;;;;;1.33;0.98;;;17.70;49.30;;;;;;6154133;23;20568;-86
2023/10/19 03:34:12;;;;;;;1.63;1.05;;;17.70;49.30;;;;;;6083793;23;20158;-84
2023/10/19 03:36:39;;;;;;;0.95;0.95;;;17.60;49.30;;;;;;6154265;23;20218;-85
2023/10/19 03:39:11;;;;;;;2.03;1.00;;;17.70;49.40;;;;;;6129548;23;20143;-85
2023/10/19 03:41:38;;;;;;;1.17;0.93;;;17.70;49.40;;;;;;6131020;23;20211;-85
2023/10/19 03:44:04;;;;;;;1.77;1.10;;;17.70;49.40;;;;;;6105115;23;20147;-85
2023/10/19 03:46:37;;;;;;;1.77;0.98;;;17.70;49.40;;;;;;6129298;23;20771;-85
2023/10/19 03:49:10;;;;;;;1.08;0.90;;;17.60;49.40;;;;;;6123202;23;20206;-84
2023/10/19 03:51:40;;;;;;;1.50;0.80;;;17.70;49.40;;;;;;6084051;23;20163;-85
2023/10/19 03:54:21;;;;;;;1.65;0.90;;;17.60;49.40;;;;;;6079433;23;20596;-84
2023/10/19 03:56:49;;;;;;;2.33;1.00;;;17.60;49.40;;;;;;6086708;23;20136;-84
2023/10/19 03:59:16;;;;;;;1.55;0.90;;;17.60;49.40;;;;;;6105133;23;20140;-86
2023/10/19 04:01:43;;;;;;;1.85;0.90;;;17.60;49.40;;;;;;6081703;23;20570;-85
2023/10/19 04:04:09;;;;;;;1.92;1.20;;;17.70;49.40;;;;;;6128856;23;20202;-85
2023/10/19 04:06:37;;;;;;;1.92;1.00;;;17.60;49.40;;;;;;6105100;23;20142;-85
2023/10/19 04:09:06;;;;;;;1.10;0.70;;;17.70;49.40;;;;;;6104829;23;20634;-85
2023/10/19 04:11:47;;;;;;;1.02;0.93;;;17.60;49.40;;;;;;6079781;23;20728;-84
2023/10/19 04:14:15;;;;;;;1.80;1.00;;;17.70;49.40;;;;;;6064119;23;20154;-85
2023/10/19 04:16:45;;;;;;;1.30;1.00;;;17.60;49.40;;;;;;6129754;23;20136;-86
2023/10/19 04:19:11;;;;;;;1.27;0.80;;;17.60;49.40;;;;;;6079853;23;20615;-84
2023/10/19 04:21:39;;;;;;;1.30;0.93;;;17.60;50.10;;;;;;6105201;23;20139;-84
2023/10/19 04:24:07;;;;;;;1.58;0.85;;;17.70;49.40;;;;;;6129744;23;20211;-86
2023/10/19 04:26:37;;;;;;;1.02;0.85;;;17.60;49.40;;;;;;6129481;23;20146;-85
2023/10/19 04:29:13;;;;;;;1.77;0.98;;;17.60;49.50;;;;;;6129796;23;20175;-85
2023/10/19 04:34:24;;;;;;;2.90;1.23;;;17.60;49.40;;;;;;6133098;23;20152;-85
2023/10/19 04:36:50;;;;;;;2.05;0.95;;;17.60;49.40;;;;;;6104872;23;20568;-84
2023/10/19 04:39:19;;;;;;;1.00;0.80;;;17.70;49.50;;;;;;6129364;23;20579;-85
2023/10/19 04:41:45;;;;;;;2.25;1.15;;;17.70;49.50;;;;;;6105417;23;20181;-85
2023/10/19 04:44:11;;;;;;;0.70;0.70;;;17.60;49.40;;;;;;6104580;23;20634;-85
2023/10/19 04:46:37;;;;;;;2.28;0.70;;;17.60;49.50;;;;;;6104503;23;20131;-85
2023/10/19 04:49:03;;;;;;;1.33;1.00;;;17.60;49.60;;;;;;6080548;23;20957;-85
2023/10/19 04:51:29;;;;;;;1.38;1.00;;;17.60;49.60;;;;;;6129093;23;20483;-84
2023/10/19 04:53:55;;;;;;;1.20;0.90;;;17.60;49.60;;;;;;6103806;23;20138;-85
2023/10/19 04:56:21;;;;;;;1.48;0.77;;;17.60;49.50;;;;;;6104373;23;20135;-84
2023/10/19 04:58:47;;;;;;;2.42;1.00;;;17.60;49.50;;;;;;6104458;23;20131;-86
2023/10/19 05:01:14;;;;;;;1.73;0.80;;;17.60;49.60;;;;;;6129164;23;20135;-83
2023/10/19 05:03:41;;;;;;;0.93;0.85;;;17.60;49.50;;;;;;6129098;23;20139;-85
2023/10/19 05:06:09;;;;;;;1.73;1.10;;;17.60;49.50;;;;;;6080713;23;20198;-85
2023/10/19 05:08:35;;;;;;;1.15;0.90;;;17.60;49.60;;;;;;6129325;23;20254;-85
2023/10/19 05:11:00;;;;;;;1.20;0.90;;;17.60;49.60;;;;;;6105007;23;20167;-86
2023/10/19 05:13:27;;;;;;;0.95;0.93;;;17.60;49.60;;;;;;6080338;23;20639;-85
2023/10/19 05:15:54;;;;;;;2.22;0.90;;;17.60;50.20;;;;;;6130179;23;20186;-85
2023/10/19 05:18:20;;;;;;;1.48;1.00;;;17.60;49.50;;;;;;6131529;23;20139;-84
2023/10/19 05:20:46;;;;;;;1.73;1.30;;;17.60;49.60;;;;;;6106389;23;20219;-85
2023/10/19 05:23:13;;;;;;;1.75;0.90;;;17.70;49.70;;;;;;6157061;23;20163;-85
2023/10/19 05:25:39;;;;;;;2.38;1.02;;;17.70;49.80;;;;;;6108142;23;20136;-84
2023/10/19 05:28:05;;;;;;;1.60;0.88;;;17.80;49.50;;;;;;6158092;23;20170;-84
2023/10/19 05:30:32;;;;;;;1.05;0.80;;;17.80;49.40;;;;;;6131951;23;20144;-85
2023/10/19 05:32:58;;;;;;;1.15;0.90;;;17.80;49.30;;;;;;6108063;23;20152;-85
2023/10/19 05:35:29;;;;;;;1.60;0.80;;;17.80;49.30;;;;;;6107342;23;20586;-85
2023/10/19 05:37:58;;;;;;;1.08;0.88;;;17.90;49.80;;;;;;6076742;23;20156;-85
2023/10/19 05:40:29;;;;;;;1.90;0.93;;;17.90;49.10;;;;;;6151231;23;20132;-84
2023/10/19 05:42:56;;;;;;;1.20;1.00;;;17.80;48.90;;;;;;6119087;23;20143;-84
2023/10/19 05:45:22;;;;;;;1.58;0.80;;;17.80;48.80;;;;;;6102134;23;20464;-84
2023/10/19 05:47:47;;;;;;;0.98;0.90;;;17.90;48.80;;;;;;6139006;23;20197;-84
2023/10/19 05:50:14;;;;;;;0.90;0.63;;;17.90;48.70;;;;;;6159673;23;20194;-85
2023/10/19 05:52:42;;;;;;;0.90;0.80;;;17.80;48.60;;;;;;6134796;23;20254;-84
2023/10/19 05:55:11;;;;;;;0.90;0.80;;;17.90;48.30;;;;;;6136600;23;20138;-84
2023/10/19 05:57:40;;;;;;;1.17;0.88;;;17.90;48.20;;;;;;6166831;23;20131;-84
2023/10/19 06:00:12;;;;;;;1.05;0.95;;;17.90;48.20;;;;;;6114104;23;20217;-84
2023/10/19 06:02:44;;;;;;;1.10;0.90;;;17.90;48.00;;;;;;6138489;23;20143;-85
2023/10/19 06:05:10;;;;;;;1.00;0.70;;;17.80;47.90;;;;;;6087638;23;20594;-85
2023/10/19 06:07:36;;;;;;;1.10;0.70;;;17.90;47.80;;;;;;6186894;23;20234;-85
2023/10/19 06:10:04;;;;;;;1.17;0.60;;;17.90;47.60;;;;;;6135617;23;20242;-87
2023/10/19 06:12:34;;;;;;;1.58;0.75;;;17.90;47.50;;;;;;6112075;23;20234;-86
2023/10/19 06:15:00;;;;;;;1.15;0.70;;;17.90;47.70;;;;;;6087055;23;20182;-86
2023/10/19 06:17:27;;;;;;;0.77;0.68;;;17.90;47.60;;;;;;6112219;23;20152;-86
2023/10/19 06:19:54;;;;;;;0.47;0.47;;;17.80;47.70;;;;;;6161793;23;20169;-85
2023/10/19 06:22:19;;;;;;;0.70;0.60;;;17.80;47.50;;;;;;6138366;23;20217;-86
2023/10/19 06:24:45;;;;;;;0.95;0.70;;;17.80;47.50;;;;;;6113428;23;20150;-85
2023/10/19 06:27:12;;;;;;;0.80;0.63;;;17.80;47.30;;;;;;6162171;23;20242;-85
2023/10/19 06:29:38;;;;;;;0.73;0.57;;;17.90;47.20;;;;;;6112651;23;20198;-86
2023/10/19 06:32:04;;;;;;;0.80;0.57;;;17.80;47.00;;;;;;6101306;23;20651;-86
2023/10/19 06:34:30;;;;;;;0.68;0.60;;;17.80;47.10;;;;;;6052958;23;20152;-85
2023/10/19 06:36:59;;;;;;;0.65;0.60;;;17.90;46.90;;;;;;6052692;23;20159;-85
2023/10/19 06:39:24;;;;;;;0.88;0.60;;;17.80;46.90;;;;;;6020162;23;20161;-85
2023/10/19 06:41:53;;;;;;;0.65;0.50;;;17.90;46.90;;;;;;6019671;23;20214;-85
2023/10/19 06:44:19;;;;;;;1.65;0.80;;;17.90;46.90;;;;;;6019071;23;20182;-85
2023/10/19 06:46:45;;;;;;;0.68;0.60;;;17.90;46.90;;;;;;6042624;23;20460;-85
2023/10/19 06:49:12;;;;;;;0.47;0.47;;;17.90;46.80;;;;;;6013815;23;20216;-85
2023/10/19 06:51:39;;;;;;;0.98;0.60;;;17.90;46.70;;;;;;6037274;23;20634;-85
2023/10/19 06:54:04;;;;;;;1.02;0.77;;;17.90;46.80;;;;;;6037587;23;20177;-85
2023/10/19 06:56:32;;;;;;;0.82;0.60;;;17.90;46.70;;;;;;6039410;23;20141;-85
2023/10/19 06:58:58;;;;;;;0.57;0.57;;;17.90;46.60;;;;;;6035365;23;20162;-86
2023/10/19 07:01:26;;;;;;;1.00;0.77;;;17.90;46.50;;;;;;6004818;23;20146;-85
2023/10/19 07:03:53;;;;;;;0.60;0.55;;;17.80;46.60;;;;;;6087639;23;20209;-85
2023/10/19 07:06:20;;;;;;;0.80;0.57;;;17.80;46.70;;;;;;6066550;23;20153;-85
2023/10/19 07:08:46;;;;;;;1.02;0.70;;;17.90;46.70;;;;;;6067913;23;20161;-84
2023/10/19 07:11:12;;;;;;;0.85;0.45;;;17.80;46.60;;;;;;6117727;23;20202;-85
2023/10/19 07:13:39;;;;;;;1.08;0.60;;;17.80;46.60;;;;;;6127993;23;20206;-84
2023/10/19 07:16:05;;;;;;;0.60;0.50;;;17.90;46.60;;;;;;6130891;23;20132;-86
2023/10/19 07:18:34;;;;;;;0.57;0.55;;;17.80;46.60;;;;;;6131885;23;20140;-86
2023/10/19 07:21:05;;;;;;;0.50;0.50;;;17.80;46.60;;;;;;6130733;23;20144;-85
2023/10/19 07:23:31;;;;;;;0.82;0.50;;;17.80;46.60;;;;;;6107293;23;20163;-86
2023/10/19 07:25:59;;;;;;;0.43;0.43;;;17.80;46.60;;;;;;6131572;23;20143;-85
2023/10/19 07:28:28;;;;;;;0.77;0.55;;;17.80;46.70;;;;;;6106691;23;20171;-85
2023/10/19 07:30:54;;;;;;;1.38;0.70;;;17.80;46.60;;;;;;6107176;23;20150;-85
2023/10/19 07:33:20;;;;;;;0.77;0.60;;;17.80;46.60;;;;;;6131972;23;20139;-85
2023/10/19 07:35:47;;;;;;;0.68;0.60;;;17.90;46.60;;;;;;6133036;23;20143;-85
2023/10/19 07:38:13;;;;;;;0.55;0.40;;;17.90;46.60;;;;;;6132755;23;20571;-87
2023/10/19 07:40:39;;;;;;;0.52;0.52;;;17.80;46.70;;;;;;6131181;23;20508;-84
2023/10/19 07:43:05;;;;;;;2.50;1.10;;;17.80;46.80;;;;;;6131506;23;20166;-85
2023/10/19 07:45:31;;;;;;;0.60;0.50;;;17.70;46.60;;;;;;6157090;23;20131;-86
2023/10/19 07:47:57;;;;;;;0.50;0.50;;;17.80;46.60;;;;;;6133467;23;20187;-85
2023/10/19 07:50:23;;;;;;;0.60;0.60;;;17.80;46.60;;;;;;6109280;23;20515;-85
2023/10/19 07:52:51;;;;;;;0.60;0.50;;;17.80;46.50;;;;;;6162244;23;20127;-87
2023/10/19 07:55:17;;;;;;;0.60;0.60;;;17.90;46.50;;;;;;6139228;23;20554;-85
2023/10/19 07:57:44;;;;;;;0.68;0.50;;;17.80;46.50;;;;;;6135993;23;20222;-86
2023/10/19 08:00:13;;;;;;;0.60;0.50;;;17.80;46.60;;;;;;6112368;23;20157;-85
2023/10/19 08:02:41;;;;;;;1.23;0.60;;;17.70;46.60;;;;;;6136173;23;20157;-84
2023/10/19 08:05:07;;;;;;;0.50;0.50;;;17.70;46.70;;;;;;6136205;23;20150;-86
2023/10/19 08:07:34;;;;;;;0.60;0.60;;;17.80;46.80;;;;;;6111613;23;20177;-86
2023/10/19 08:10:03;;;;;;;0.55;0.40;;;17.70;46.80;;;;;;6111932;23;20200;-86
2023/10/19 08:12:32;;;;;;;1.35;0.70;;;17.80;46.80;;;;;;6114646;23;20174;-85
2023/10/19 08:14:59;;;;;;;0.50;0.50;;;17.70;46.90;;;;;;6063565;23;20212;-85
2023/10/19 08:17:25;;;;;;;0.40;0.40;;;17.70;46.90;;;;;;6135941;23;20127;-84
2023/10/19 08:19:51;;;;;;;0.73;0.50;;;17.70;46.70;;;;;;6136223;23;20150;-85
2023/10/19 08:22:17;;;;;;;1.17;0.40;;;17.70;46.70;;;;;;6135668;23;20135;-85
2023/10/19 08:24:43;;;;;;;2.38;0.68;;;17.70;46.70;;;;;;6136359;23;20202;-85
2023/10/19 08:27:12;;;;;;;0.52;0.52;;;17.60;46.70;;;;;;6137261;23;20142;-87
2023/10/19 08:29:38;;;;;;;0.82;0.70;;;17.70;46.70;;;;;;6137804;23;20505;-83
2023/10/19 08:32:04;;;;;;;1.50;0.50;;;17.70;46.70;;;;;;6112977;23;20587;-87
2023/10/19 08:34:35;;;;;;;0.40;0.30;;;17.80;46.60;;;;;;6190396;23;20222;-86
2023/10/19 08:37:02;;;;;;;0.50;0.50;;;17.80;46.60;;;;;;6136945;23;20150;-86
2023/10/19 08:39:28;;;;;;;0.60;0.60;;;17.80;46.50;;;;;;6113221;23;20251;-85
2023/10/19 08:41:55;;;;;;;0.85;0.50;;;17.80;46.60;;;;;;6137698;23;20210;-83
2023/10/19 08:44:21;;;;;;;1.88;0.50;;;17.80;46.70;;;;;;6111981;23;20480;-84
2023/10/19 08:46:47;;;;;;;2.50;0.47;;;17.80;46.90;;;;;;6135625;23;20142;-84
2023/10/19 08:49:14;;;;;;;0.40;0.40;;;17.80;46.90;;;;;;6160381;23;20190;-85
2023/10/19 08:51:46;;;;;;;0.63;0.40;;;17.90;46.70;;;;;;6137008;23;20162;-85
2023/10/19 08:54:13;;;;;;;0.30;0.30;;;18.00;46.80;;;;;;6135623;23;20142;-83
2023/10/19 08:56:45;;;;;;;1.90;0.50;;;17.90;46.50;;;;;;6135087;23;20134;-84
2023/10/19 08:59:15;;;;;;;0.82;0.45;;;18.00;46.40;;;;;;6112086;23;20490;-85
2023/10/19 09:01:43;;;;;;;0.65;0.55;;;18.00;46.50;;;;;;6158150;23;20135;-85
2023/10/19 09:04:11;;;;;;;0.40;0.40;;;18.10;46.50;;;;;;6158118;23;20247;-85
2023/10/19 09:06:41;;;;;;;0.40;0.40;;;18.10;46.40;;;;;;6185589;23;20157;-84
2023/10/19 09:09:16;;;;;;;1.17;0.47;;;18.10;46.40;;;;;;6087226;23;20186;-85
2023/10/19 09:11:44;;;;;;;0.40;0.40;;;18.00;46.40;;;;;;6065520;23;20606;-86
2023/10/19 09:14:12;;;;;;;1.00;0.55;;;18.00;46.50;;;;;;6158811;23;20193;-84
2023/10/19 09:16:38;;;;;;;0.40;0.40;;;18.00;46.50;;;;;;6136071;23;20146;-86
2023/10/19 09:19:05;;;;;;;0.52;0.50;;;18.00;46.40;;;;;;6162691;23;20143;-84
2023/10/19 09:21:32;;;;;;;0.55;0.40;;;18.10;46.40;;;;;;6111437;23;20151;-84
2023/10/19 09:23:58;;;;;;;0.63;0.47;;;18.10;46.40;;;;;;6188835;23;20211;-85
2023/10/19 09:26:24;;;;;;;0.52;0.50;;;18.00;46.10;;;;;;6160840;23;20547;-85
2023/10/19 09:28:51;;;;;;;0.30;0.30;;;18.00;46.20;;;;;;6137021;23;20257;-85
2023/10/19 09:31:18;;;;;;;1.65;0.35;;;18.00;46.20;;;;;;6137162;23;20194;-84
2023/10/19 09:33:44;;;;;;;0.40;0.40;;;18.00;46.20;;;;;;6161105;23;20138;-85
2023/10/19 09:36:13;;;;;;;0.57;0.50;;;18.00;46.20;;;;;;6138835;23;20131;-85
2023/10/19 09:38:44;;;;;;;0.70;0.50;;;18.10;46.00;;;;;;6140904;23;20139;-85
2023/10/19 09:41:12;;;;;;;0.50;0.40;;;18.00;46.00;;;;;;6162755;23;20142;-86
2023/10/19 09:43:41;;;;;;;1.25;0.40;;;18.00;46.00;;;;;;6187562;23;20135;-85
2023/10/19 09:46:09;;;;;;;0.77;0.60;;;18.10;46.00;;;;;;6163508;23;20557;-86
2023/10/19 09:48:41;;;;;;;0.77;0.45;;;18.10;45.70;;;;;;6166592;23;20186;-84
2023/10/19 09:51:10;;;;;;;0.70;0.40;;;18.00;45.80;;;;;;6193177;23;20185;-85
2023/10/19 09:53:38;;;;;;;0.50;0.40;;;18.00;45.70;;;;;;6121351;23;20196;-85
2023/10/19 09:56:06;;;;;;;0.57;0.40;;;18.00;45.90;;;;;;6141945;23;20205;-85
2023/10/19 09:58:37;;;;;;;0.70;0.40;;;18.10;45.90;;;;;;6095462;23;20494;-85
2023/10/19 10:01:11;;;;;;;0.35;0.30;;;17.90;45.70;;;;;;6141418;23;20139;-85
2023/10/19 10:03:57;;;;;;;0.47;0.40;;;18.00;45.90;;;;;;6120511;23;20150;-85
2023/10/19 10:06:51;;;;;;;0.45;0.40;;;18.00;45.70;;;;;;6141442;23;20149;-84
2023/10/19 10:09:21;;;;;;;0.55;0.40;;;18.10;45.70;;;;;;6188091;23;20174;-85
2023/10/19 10:11:49;;;;;;;0.40;0.30;;;18.10;45.60;;;;;;6162938;23;20262;-85
2023/10/19 10:14:25;;;;;;;0.30;0.30;;;18.00;45.50;;;;;;6138224;23;20155;-85
2023/10/19 10:17:02;;;;;;;0.50;0.30;;;18.00;45.60;;;;;;6139708;23;20134;-84
2023/10/19 10:19:28;;;;;;;0.35;0.35;;;18.00;45.50;;;;;;6163428;23;20134;-84
2023/10/19 10:22:11;;;;;;;0.40;0.40;;;18.00;45.50;;;;;;6190320;23;20153;-83
2023/10/19 10:24:41;;;;;;;0.40;0.40;;;18.00;45.30;;;;;;6164278;23;20135;-83
2023/10/19 10:27:07;;;;;;;0.50;0.50;;;18.00;45.30;;;;;;6166711;23;20131;-86
2023/10/19 10:29:33;;;;;;;0.30;0.30;;;18.00;45.20;;;;;;6114644;23;20229;-85
2023/10/19 10:32:01;;;;;;;0.55;0.47;;;18.00;45.20;;;;;;6141178;23;20147;-85
2023/10/19 10:34:43;;;;;;;0.30;0.30;;;18.00;45.40;;;;;;6145360;23;20146;-86
2023/10/19 10:37:14;;;;;;;0.55;0.40;;;18.00;45.30;;;;;;6148799;23;20146;-84
2023/10/19 10:39:41;;;;;;;0.70;0.60;;;18.00;45.10;;;;;;6102359;23;20607;-84
2023/10/19 10:42:08;;;;;;;2.05;0.50;;;18.00;45.30;;;;;;6149083;23;20131;-85
2023/10/19 10:44:40;;;;;;;1.95;0.50;;;18.10;45.30;;;;;;6147417;23;20222;-84
2023/10/19 10:47:11;;;;;;;0.50;0.50;;;18.00;45.10;;;;;;6123230;23;20563;-85
2023/10/19 10:49:51;;;;;;;0.60;0.40;;;18.00;45.10;;;;;;6121164;23;20238;-86
2023/10/19 10:52:26;;;;;;;0.40;0.40;;;18.00;45.10;;;;;;6199174;23;20127;-84
2023/10/19 10:54:52;;;;;;;1.63;0.50;;;18.00;45.10;;;;;;6171833;23;20131;-85
2023/10/19 10:57:20;;;;;;;0.80;0.68;;;18.00;45.00;;;;;;6144499;23;20162;-86
2023/10/19 11:00:25;;;;;;;0.40;0.40;;;18.00;44.90;;;;;;6154539;23;20130;-89
2023/10/19 11:03:04;;;;;;;0.45;0.40;;;17.90;44.80;;;;;;6056248;23;20199;-90
2023/10/19 11:05:54;;;;;;;0.30;0.30;;;18.00;45.00;;;;;;6009792;23;20142;-89
2023/10/19 11:08:26;;;;;;;0.40;0.40;;;18.00;44.90;;;;;;6008623;23;20186;-88
2023/10/19 11:11:04;;;;;;;0.52;0.52;;;17.90;44.70;;;;;;6029850;23;20158;-88
2023/10/19 11:13:50;;;;;;;0.45;0.45;;;18.00;44.70;;;;;;5971808;24;20162;-88
2023/10/19 11:16:22;;;;;;;0.30;0.30;;;18.00;44.60;;;;;;5990796;24;20156;-88
2023/10/19 11:18:51;;;;;;;0.90;0.63;;;18.00;44.60;;;;;;5995037;24;20208;-88
2023/10/19 11:22:34;;;;;;;0.40;0.40;;;18.00;44.40;;;;;;5973683;24;20159;-88
2023/10/19 11:25:30;;;;;;;0.50;0.50;;;18.00;44.60;;;;;;5914223;24;20187;-89
2023/10/19 11:28:05;;;;;;;0.70;0.57;;;18.00;44.20;;;;;;5930602;24;20192;-86
2023/10/19 11:30:32;;;;;;;0.40;0.40;;;18.00;44.50;;;;;;5944334;24;20253;-87
2023/10/19 11:33:05;;;;;;;0.73;0.50;;;18.10;44.20;;;;;;5990217;23;20158;-89
2023/10/19 11:35:32;;;;;;;0.50;0.50;;;18.10;44.00;;;;;;6062679;23;20181;-87
2023/10/19 11:37:59;;;;;;;0.68;0.60;;;18.00;43.90;;;;;;6097535;23;20161;-86
2023/10/19 11:40:26;;;;;;;0.40;0.40;;;18.10;43.90;;;;;;6138444;23;20188;-86
2023/10/19 11:42:53;;;;;;;0.50;0.50;;;18.10;43.70;;;;;;6114777;23;20270;-86
2023/10/19 11:45:19;;;;;;;0.60;0.55;;;18.10;43.70;;;;;;6138919;23;20135;-86
2023/10/19 11:47:45;;;;;;;0.60;0.50;;;18.10;43.80;;;;;;6108216;23;20218;-85
2023/10/19 11:50:15;;;;;;;0.85;0.55;;;18.10;43.80;;;;;;6132660;23;20175;-86
2023/10/19 11:52:43;;;;;;;0.40;0.40;;;18.10;43.60;;;;;;6062363;23;20155;-85
2023/10/19 11:55:09;;;;;;;0.68;0.50;;;18.10;43.50;;;;;;6133180;23;20152;-85
2023/10/19 11:57:38;;;;;;;0.40;0.40;;;18.00;43.70;;;;;;6158889;23;20132;-86
2023/10/19 12:00:08;;;;;;;0.60;0.60;;;18.00;43.60;;;;;;6161243;23;20166;-86
2023/10/19 12:02:38;;;;;;;0.60;0.60;;;18.10;43.70;;;;;;6159192;23;20142;-86
2023/10/19 12:05:11;;;;;;;1.77;0.68;;;18.10;43.60;;;;;;6137853;23;20161;-85
2023/10/19 12:07:38;;;;;;;0.50;0.50;;;18.10;43.40;;;;;;6140337;23;20147;-85
2023/10/19 12:10:07;;;;;;;2.92;0.70;;;18.10;43.40;;;;;;6115960;23;20211;-85
2023/10/19 12:12:37;;;;;;;0.63;0.50;;;18.10;43.50;;;;;;6142972;23;20147;-86
2023/10/19 12:15:06;;;;;;;1.98;0.55;;;18.00;43.40;;;;;;6115208;23;20170;-86
2023/10/19 12:17:35;;;;;;;1.10;0.52;;;18.00;43.30;;;;;;6116932;23;20192;-85
2023/10/19 12:20:00;;;;;;;0.60;0.50;;;18.00;43.40;;;;;;6060707;23;20186;-86
2023/10/19 12:22:31;;;;;;;0.50;0.50;;;18.00;43.40;;;;;;6107451;23;20154;-87
2023/10/19 12:24:58;;;;;;;0.55;0.50;;;18.00;43.40;;;;;;6144650;23;20564;-86
2023/10/19 12:27:24;;;;;;;0.68;0.50;;;17.90;43.20;;;;;;6132560;23;20202;-84
2023/10/19 12:29:52;;;;;;;1.10;0.60;;;17.90;43.30;;;;;;6130396;23;20179;-88
2023/10/19 12:32:18;;;;;;;1.20;0.60;;;17.90;43.90;;;;;;6106832;23;20148;-87
2023/10/19 12:34:44;;;;;;;0.77;0.55;;;17.90;43.00;;;;;;6132227;23;20143;-87
2023/10/19 12:37:12;;;;;;;2.25;0.50;;;18.00;43.00;;;;;;6132621;23;20142;-88
2023/10/19 12:39:48;;;;;;;2.25;0.70;;;17.90;43.00;;;;;;6134357;23;20174;-86
2023/10/19 12:42:16;;;;;;;0.60;0.60;;;17.90;42.90;;;;;;6140093;23;20165;-87
2023/10/19 12:44:43;;;;;;;1.00;0.70;;;18.00;43.10;;;;;;6113568;23;20219;-87
2023/10/19 12:47:10;;;;;;;2.35;0.73;;;18.00;42.90;;;;;;6113560;23;20155;-86
2023/10/19 12:49:37;;;;;;;1.25;0.52;;;18.00;42.80;;;;;;6112442;23;20259;-86
2023/10/19 12:52:03;;;;;;;1.58;0.60;;;18.00;42.70;;;;;;6137113;23;20530;-87
2023/10/19 12:54:29;;;;;;;0.90;0.65;;;18.00;42.50;;;;;;6134130;23;20480;-86
2023/10/19 12:56:56;;;;;;;0.70;0.70;;;18.00;42.70;;;;;;6114573;23;20166;-87
2023/10/19 12:59:22;;;;;;;2.22;0.77;;;18.00;42.50;;;;;;6113237;23;20163;-86
2023/10/19 13:01:54;;;;;;;3.65;0.60;;;18.00;42.50;;;;;;6132779;23;20135;-87